createdAt,value
2019-05-05T00:00:17.483Z,7.80
2019-05-05T00:01:17.471Z,7.90
2019-05-05T00:02:17.461Z,7.30
2019-05-05T00:03:17.492Z,7.00
2019-05-05T00:04:17.466Z,7.60
2019-05-05T00:05:17.428Z,7.50
2019-05-05T00:06:17.419Z,7.30
2019-05-05T00:07:17.453Z,7.40
2019-05-05T00:08:17.397Z,7.30
2019-05-05T00:09:17.385Z,8.00
2019-05-05T00:10:17.374Z,7.10
2019-05-05T00:11:17.366Z,7.30
2019-05-05T00:12:17.354Z,7.20
2019-05-05T00:13:17.383Z,7.60
2019-05-05T00:14:17.329Z,6.80
2019-05-05T00:15:17.355Z,7.20
2019-05-05T00:16:17.354Z,6.30
2019-05-05T00:17:17.294Z,7.30
2019-05-05T00:18:17.285Z,6.60
2019-05-05T00:19:29.778Z,6.70
2019-05-05T00:20:18.261Z,6.70
2019-05-05T00:21:17.250Z,6.50
2019-05-05T00:22:17.289Z,6.50
2019-05-05T00:23:17.228Z,5.90
2019-05-05T00:24:17.219Z,6.30
2019-05-05T00:25:17.207Z,6.50
2019-05-05T00:26:17.238Z,6.40
2019-05-05T00:27:17.182Z,6.10
2019-05-05T00:28:17.175Z,6.30
2019-05-05T00:29:17.164Z,6.10
2019-05-05T00:30:17.190Z,5.90
2019-05-05T00:31:17.179Z,6.20
2019-05-05T00:32:17.166Z,6.00
2019-05-05T00:33:17.120Z,5.40
2019-05-05T00:34:17.105Z,5.50
2019-05-05T00:35:17.098Z,5.70
2019-05-05T00:36:17.085Z,6.10
2019-05-05T00:37:17.114Z,6.00
2019-05-05T00:38:17.100Z,5.60
2019-05-05T00:39:17.058Z,5.80
2019-05-05T00:40:17.041Z,5.80
2019-05-05T00:41:17.029Z,5.70
2019-05-05T00:42:17.019Z,5.60
2019-05-05T00:43:17.059Z,5.00
2019-05-05T00:44:16.996Z,5.10
2019-05-05T00:45:16.997Z,5.40
2019-05-05T00:46:16.973Z,5.40
2019-05-05T00:47:16.969Z,4.90
2019-05-05T00:48:16.992Z,5.40
2019-05-05T00:49:16.939Z,5.50
2019-05-05T00:50:16.931Z,5.70
2019-05-05T00:51:16.962Z,5.30
2019-05-05T00:52:16.910Z,5.10
2019-05-05T00:53:16.896Z,5.30
2019-05-05T00:54:16.885Z,4.80
2019-05-05T00:55:16.876Z,5.40
2019-05-05T00:56:16.861Z,4.90
2019-05-05T00:57:16.890Z,4.80
2019-05-05T00:58:16.841Z,5.00
2019-05-05T00:59:16.827Z,5.30
2019-05-05T01:00:16.821Z,5.30
2019-05-05T01:01:16.804Z,5.30
2019-05-05T01:02:16.841Z,5.30
2019-05-05T01:03:16.785Z,5.10
2019-05-05T01:04:16.773Z,4.90
2019-05-05T01:05:16.760Z,5.20
2019-05-05T01:06:16.752Z,5.40
2019-05-05T01:07:16.781Z,5.30
2019-05-05T01:08:16.770Z,5.00
2019-05-05T01:09:16.717Z,5.60
2019-05-05T01:10:16.707Z,5.10
2019-05-05T01:11:16.698Z,5.10
2019-05-05T01:12:16.687Z,4.80
2019-05-05T01:13:16.672Z,5.20
2019-05-05T01:14:16.707Z,5.60
2019-05-05T01:15:16.656Z,5.50
2019-05-05T01:16:16.687Z,4.90
2019-05-05T01:17:16.629Z,4.90
2019-05-05T01:18:16.622Z,4.90
2019-05-05T01:19:16.613Z,5.30
2019-05-05T01:20:16.637Z,5.50
2019-05-05T01:21:16.584Z,5.00
2019-05-05T01:22:16.577Z,5.00
2019-05-05T01:23:16.604Z,5.00
2019-05-05T01:24:16.554Z,5.30
2019-05-05T01:25:16.540Z,5.30
2019-05-05T01:26:16.530Z,5.20
2019-05-05T01:27:16.519Z,5.00
2019-05-05T01:28:16.512Z,4.70
2019-05-05T01:29:16.541Z,5.40
2019-05-05T01:30:16.488Z,5.70
2019-05-05T01:31:16.477Z,5.60
2019-05-05T01:32:16.500Z,5.80
2019-05-05T01:33:16.451Z,5.80
2019-05-05T01:34:16.441Z,5.70
2019-05-05T01:35:16.428Z,6.40
2019-05-05T01:36:16.419Z,5.70
2019-05-05T01:37:16.447Z,5.90
2019-05-05T01:38:16.404Z,5.50
2019-05-05T01:39:16.386Z,6.40
2019-05-05T01:40:16.373Z,6.30
2019-05-05T01:41:16.410Z,6.50
2019-05-05T01:42:16.355Z,6.70
2019-05-05T01:43:16.381Z,7.00
2019-05-05T01:44:16.373Z,6.40
2019-05-05T01:45:16.322Z,5.70
2019-05-05T01:46:16.314Z,5.90
2019-05-05T01:47:16.295Z,5.70
2019-05-05T01:48:16.287Z,5.20
2019-05-05T01:49:16.276Z,5.30
2019-05-05T01:50:20.876Z,5.00
2019-05-05T01:51:17.256Z,5.30
2019-05-05T01:52:16.240Z,5.10
2019-05-05T01:53:16.230Z,5.20
2019-05-05T01:54:16.218Z,5.10
2019-05-05T01:55:16.233Z,5.30
2019-05-05T01:56:16.234Z,5.30
2019-05-05T01:57:16.232Z,5.80
2019-05-05T01:58:16.180Z,5.40
2019-05-05T01:59:16.163Z,5.60
2019-05-05T02:00:16.193Z,5.30
2019-05-05T02:01:16.186Z,5.30
2019-05-05T02:02:16.177Z,5.10
2019-05-05T02:03:16.123Z,5.30
2019-05-05T02:04:16.107Z,4.80
2019-05-05T02:05:16.096Z,5.00
2019-05-05T02:06:16.086Z,5.30
2019-05-05T02:07:16.078Z,5.20
2019-05-05T02:08:16.104Z,5.80
2019-05-05T02:09:16.089Z,5.60
2019-05-05T02:10:16.051Z,5.30
2019-05-05T02:11:16.031Z,5.10
2019-05-05T02:12:16.111Z,5.80
2019-05-05T02:13:16.188Z,5.40
2019-05-05T02:14:15.999Z,6.00
2019-05-05T02:15:15.985Z,5.70
2019-05-05T02:16:15.974Z,5.90
2019-05-05T02:17:15.965Z,6.20
2019-05-05T02:18:15.994Z,6.20
2019-05-05T02:19:15.993Z,6.30
2019-05-05T02:20:28.656Z,5.90
2019-05-05T02:21:16.918Z,5.90
2019-05-05T02:22:15.910Z,5.90
2019-05-05T02:23:15.939Z,5.70
2019-05-05T02:24:15.892Z,6.00
2019-05-05T02:25:15.888Z,6.10
2019-05-05T02:26:15.866Z,6.60
2019-05-05T02:27:15.892Z,6.50
2019-05-05T02:28:15.846Z,6.50
2019-05-05T02:29:15.878Z,6.70
2019-05-05T02:30:16.359Z,6.20
2019-05-05T02:31:16.797Z,6.00
2019-05-05T02:32:16.152Z,5.90
2019-05-05T02:33:15.951Z,6.10
2019-05-05T02:34:16.570Z,6.00
2019-05-05T02:35:16.624Z,5.80
2019-05-05T02:36:16.122Z,7.10
2019-05-05T02:37:16.163Z,6.80
2019-05-05T02:38:15.964Z,5.80
2019-05-05T02:39:16.193Z,6.50
2019-05-05T02:40:16.132Z,6.60
2019-05-05T02:41:15.751Z,6.60
2019-05-05T02:42:15.687Z,5.40
2019-05-05T02:43:15.685Z,5.70
2019-05-05T02:44:15.745Z,5.70
2019-05-05T02:45:15.795Z,5.80
2019-05-05T02:46:15.643Z,6.80
2019-05-05T02:47:15.816Z,6.20
2019-05-05T02:48:15.744Z,6.60
2019-05-05T02:49:15.610Z,6.90
2019-05-05T02:50:15.706Z,6.40
2019-05-05T02:51:15.630Z,6.60
2019-05-05T02:52:15.577Z,6.60
2019-05-05T02:53:15.572Z,6.80
2019-05-05T02:54:15.557Z,6.40
2019-05-05T02:55:15.591Z,6.80
2019-05-05T02:56:15.533Z,6.20
2019-05-05T02:57:15.602Z,6.80
2019-05-05T02:58:15.509Z,7.10
2019-05-05T02:59:15.544Z,5.80
2019-05-05T03:00:15.487Z,6.10
2019-05-05T03:01:15.479Z,6.00
2019-05-05T03:02:15.467Z,5.60
2019-05-05T03:03:15.453Z,5.70
2019-05-05T03:04:15.490Z,6.30
2019-05-05T03:05:15.440Z,6.50
2019-05-05T03:06:15.424Z,6.20
2019-05-05T03:07:15.410Z,5.90
2019-05-05T03:08:15.422Z,5.40
2019-05-05T03:09:15.434Z,5.90
2019-05-05T03:10:15.377Z,6.10
2019-05-05T03:11:15.370Z,5.90
2019-05-05T03:12:15.355Z,6.30
2019-05-05T03:13:15.345Z,6.80
2019-05-05T03:14:15.332Z,6.70
2019-05-05T03:15:15.366Z,6.30
2019-05-05T03:16:15.353Z,6.00
2019-05-05T03:17:15.301Z,6.40
2019-05-05T03:18:15.288Z,6.50
2019-05-05T03:19:15.278Z,6.50
2019-05-05T03:20:15.267Z,6.90
2019-05-05T03:21:15.254Z,6.80
2019-05-05T03:22:15.291Z,6.90
2019-05-05T03:23:15.236Z,7.30
2019-05-05T03:24:15.221Z,7.90
2019-05-05T03:25:15.258Z,7.60
2019-05-05T03:26:15.202Z,7.10
2019-05-05T03:27:15.193Z,6.90
2019-05-05T03:28:15.220Z,6.70
2019-05-05T03:29:15.166Z,7.40
2019-05-05T03:30:15.589Z,7.40
2019-05-05T03:31:16.271Z,7.20
2019-05-05T03:32:16.335Z,7.70
2019-05-05T03:33:16.207Z,7.30
2019-05-05T03:34:16.347Z,7.10
2019-05-05T03:35:15.101Z,8.00
2019-05-05T03:36:15.090Z,7.50
2019-05-05T03:37:15.119Z,8.00
2019-05-05T03:38:15.070Z,8.10
2019-05-05T03:39:15.057Z,8.00
2019-05-05T03:40:15.055Z,7.80
2019-05-05T03:41:15.036Z,7.50
2019-05-05T03:42:15.024Z,8.10
2019-05-05T03:43:15.053Z,7.50
2019-05-05T03:44:15.000Z,8.30
2019-05-05T03:45:14.989Z,8.00
2019-05-05T03:46:14.990Z,7.80
2019-05-05T03:47:15.021Z,7.70
2019-05-05T03:48:14.958Z,8.10
2019-05-05T03:49:14.947Z,7.90
2019-05-05T03:50:14.936Z,7.60
2019-05-05T03:51:18.825Z,8.30
2019-05-05T03:52:15.956Z,8.00
2019-05-05T03:53:14.902Z,7.80
2019-05-05T03:54:14.931Z,7.80
2019-05-05T03:55:14.884Z,8.20
2019-05-05T03:56:14.874Z,7.70
2019-05-05T03:57:14.858Z,7.60
2019-05-05T03:58:14.846Z,8.90
2019-05-05T03:59:14.879Z,8.80
2019-05-05T04:00:14.827Z,8.80
2019-05-05T04:01:14.816Z,8.80
2019-05-05T04:02:14.845Z,8.50
2019-05-05T04:03:14.795Z,7.80
2019-05-05T04:04:14.779Z,7.50
2019-05-05T04:05:14.807Z,8.00
2019-05-05T04:06:14.765Z,7.80
2019-05-05T04:07:14.789Z,8.00
2019-05-05T04:08:14.739Z,19.40
2019-05-05T04:09:14.731Z,9.10
2019-05-05T04:10:14.756Z,8.30
2019-05-05T04:11:14.703Z,8.00
2019-05-05T04:12:14.694Z,7.60
2019-05-05T04:13:14.682Z,7.30
2019-05-05T04:14:14.678Z,7.90
2019-05-05T04:15:14.702Z,8.30
2019-05-05T04:16:14.648Z,8.40
2019-05-05T04:17:14.638Z,8.70
2019-05-05T04:18:14.703Z,8.70
2019-05-05T04:19:14.615Z,8.00
2019-05-05T04:20:14.603Z,8.10
2019-05-05T04:21:14.652Z,8.00
2019-05-05T04:22:14.627Z,8.40
2019-05-05T04:23:14.617Z,8.60
2019-05-05T04:24:14.688Z,8.70
2019-05-05T04:25:14.549Z,7.70
2019-05-05T04:26:14.537Z,7.60
2019-05-05T04:27:14.820Z,7.50
2019-05-05T04:28:14.514Z,8.10
2019-05-05T04:29:14.548Z,8.20
2019-05-05T04:30:14.545Z,7.40
2019-05-05T04:31:14.482Z,7.80
2019-05-05T04:32:14.470Z,7.70
2019-05-05T04:33:14.500Z,7.60
2019-05-05T04:34:14.452Z,7.40
2019-05-05T04:35:14.453Z,7.90
2019-05-05T04:36:14.616Z,7.40
2019-05-05T04:37:15.073Z,7.80
2019-05-05T04:38:14.412Z,7.20
2019-05-05T04:39:14.538Z,6.80
2019-05-05T04:40:14.941Z,6.70
2019-05-05T04:41:14.420Z,6.00
2019-05-05T04:42:14.366Z,6.30
2019-05-05T04:43:14.534Z,7.10
2019-05-05T04:44:14.932Z,6.80
2019-05-05T04:45:14.872Z,6.90
2019-05-05T04:46:14.356Z,6.40
2019-05-05T04:47:14.554Z,6.40
2019-05-05T04:48:14.317Z,7.20
2019-05-05T04:49:14.282Z,6.20
2019-05-05T04:50:15.594Z,7.20
2019-05-05T04:51:14.263Z,6.60
2019-05-05T04:52:14.420Z,6.90
2019-05-05T04:53:14.240Z,7.20
2019-05-05T04:54:14.289Z,8.40
2019-05-05T04:55:14.255Z,6.90
2019-05-05T04:56:14.206Z,6.90
2019-05-05T04:57:14.946Z,6.80
2019-05-05T04:58:14.182Z,6.50
2019-05-05T04:59:14.455Z,6.90
2019-05-05T05:00:14.228Z,6.70
2019-05-05T05:01:14.149Z,6.30
2019-05-05T05:02:14.488Z,6.20
2019-05-05T05:03:14.128Z,6.60
2019-05-05T05:04:14.162Z,7.10
2019-05-05T05:05:14.578Z,6.90
2019-05-05T05:06:14.717Z,7.40
2019-05-05T05:07:14.129Z,8.50
2019-05-05T05:08:14.114Z,9.10
2019-05-05T05:09:14.638Z,9.40
2019-05-05T05:10:14.055Z,9.20
2019-05-05T05:11:14.326Z,8.40
2019-05-05T05:12:14.593Z,8.80
2019-05-05T05:13:14.020Z,8.70
2019-05-05T05:14:14.455Z,8.60
2019-05-05T05:15:14.631Z,8.00
2019-05-05T05:16:14.072Z,8.90
2019-05-05T05:17:14.182Z,8.30
2019-05-05T05:18:14.751Z,8.00
2019-05-05T05:19:13.994Z,8.20
2019-05-05T05:20:14.206Z,8.20
2019-05-05T05:21:14.686Z,7.90
2019-05-05T05:22:13.920Z,7.70
2019-05-05T05:23:14.229Z,7.80
2019-05-05T05:24:14.679Z,7.70
2019-05-05T05:25:13.931Z,7.50
2019-05-05T05:26:14.066Z,7.90
2019-05-05T05:27:13.964Z,7.80
2019-05-05T05:28:14.476Z,7.60
2019-05-05T05:29:15.086Z,7.40
2019-05-05T05:30:13.990Z,8.00
2019-05-05T05:31:14.125Z,7.30
2019-05-05T05:32:15.563Z,7.70
2019-05-05T05:33:14.955Z,7.20
2019-05-05T05:34:14.826Z,7.10
2019-05-05T05:35:14.213Z,6.30
2019-05-05T05:36:14.429Z,6.20
2019-05-05T05:37:13.757Z,5.40
2019-05-05T05:38:14.168Z,6.10
2019-05-05T05:39:14.028Z,6.30
2019-05-05T05:40:14.406Z,6.80
2019-05-05T05:41:13.826Z,7.20
2019-05-05T05:42:13.823Z,7.20
2019-05-05T05:43:13.979Z,7.20
2019-05-05T05:44:14.077Z,6.80
2019-05-05T05:45:14.547Z,7.20
2019-05-05T05:46:13.708Z,7.10
2019-05-05T05:47:14.155Z,7.60
2019-05-05T05:48:14.376Z,7.10
2019-05-05T05:49:13.623Z,7.00
2019-05-05T05:50:14.325Z,6.80
2019-05-05T05:51:14.653Z,7.10
2019-05-05T05:52:19.085Z,7.10
2019-05-05T05:53:14.581Z,6.50
2019-05-05T05:54:14.177Z,7.30
2019-05-05T05:55:14.598Z,6.60
2019-05-05T05:56:13.616Z,7.10
2019-05-05T05:57:13.710Z,7.50
2019-05-05T05:58:14.165Z,6.80
2019-05-05T05:59:14.140Z,6.10
2019-05-05T06:00:14.494Z,6.50
2019-05-05T06:01:14.713Z,6.60
2019-05-05T06:02:15.593Z,6.00
2019-05-05T06:03:14.125Z,5.70
2019-05-05T06:04:14.484Z,6.00
2019-05-05T06:05:14.759Z,5.80
2019-05-05T06:06:13.865Z,5.90
2019-05-05T06:07:14.241Z,5.50
2019-05-05T06:08:14.187Z,5.70
2019-05-05T06:09:14.859Z,5.80
2019-05-05T06:10:22.121Z,5.70
2019-05-05T06:11:14.378Z,6.00
2019-05-05T06:12:14.155Z,5.10
2019-05-05T06:13:15.279Z,5.30
2019-05-05T06:14:14.561Z,5.50
2019-05-05T06:15:14.215Z,5.50
2019-05-05T06:16:14.562Z,5.90
2019-05-05T06:17:13.577Z,5.70
2019-05-05T06:18:13.814Z,6.00
2019-05-05T06:19:14.087Z,6.20
2019-05-05T06:20:14.525Z,6.20
2019-05-05T06:21:13.763Z,6.00
2019-05-05T06:22:15.165Z,6.10
2019-05-05T06:23:14.830Z,6.20
2019-05-05T06:24:13.674Z,5.60
2019-05-05T06:25:15.860Z,5.90
2019-05-05T06:26:15.223Z,6.10
2019-05-05T06:27:14.287Z,5.60
2019-05-05T06:28:14.508Z,6.20
2019-05-05T06:29:14.605Z,6.80
2019-05-05T06:30:13.814Z,6.50
2019-05-05T06:31:14.001Z,6.40
2019-05-05T06:32:14.608Z,6.60
2019-05-05T06:33:13.785Z,6.10
2019-05-05T06:34:13.966Z,5.80
2019-05-05T06:35:13.857Z,5.90
2019-05-05T06:36:14.174Z,5.20
2019-05-05T06:37:14.482Z,5.70
2019-05-05T06:38:13.681Z,6.00
2019-05-05T06:39:13.633Z,5.70
2019-05-05T06:40:13.915Z,5.60
2019-05-05T06:41:14.690Z,6.50
2019-05-05T06:42:13.625Z,6.80
2019-05-05T06:43:13.907Z,6.30
2019-05-05T06:44:14.213Z,5.60
2019-05-05T06:45:14.423Z,6.10
2019-05-05T06:46:14.603Z,6.00
2019-05-05T06:47:13.519Z,6.20
2019-05-05T06:48:13.580Z,5.80
2019-05-05T06:49:13.623Z,5.80
2019-05-05T06:50:13.951Z,5.90
2019-05-05T06:51:14.055Z,5.90
2019-05-05T06:52:14.279Z,5.80
2019-05-05T06:53:13.580Z,6.30
2019-05-05T06:54:13.724Z,6.00
2019-05-05T06:55:14.079Z,6.40
2019-05-05T06:56:14.633Z,6.50
2019-05-05T06:57:13.715Z,6.50
2019-05-05T06:58:13.683Z,6.70
2019-05-05T06:59:13.698Z,6.70
2019-05-05T07:00:13.947Z,6.00
2019-05-05T07:01:14.281Z,6.70
2019-05-05T07:02:14.591Z,6.70
2019-05-05T07:03:13.950Z,7.20
2019-05-05T07:04:13.942Z,7.00
2019-05-05T07:05:14.297Z,7.00
2019-05-05T07:06:14.618Z,7.20
2019-05-05T07:07:14.553Z,6.30
2019-05-05T07:08:13.869Z,6.60
2019-05-05T07:09:13.909Z,6.70
2019-05-05T07:10:14.077Z,7.10
2019-05-05T07:11:14.474Z,6.60
2019-05-05T07:12:13.857Z,7.00
2019-05-05T07:13:14.021Z,6.70
2019-05-05T07:14:14.298Z,6.60
2019-05-05T07:15:14.549Z,6.70
2019-05-05T07:16:14.734Z,6.70
2019-05-05T07:17:14.072Z,7.30
2019-05-05T07:18:14.289Z,6.20
2019-05-05T07:19:14.597Z,7.30
2019-05-05T07:20:13.566Z,7.20
2019-05-05T07:21:14.213Z,7.00
2019-05-05T07:22:14.073Z,7.30
2019-05-05T07:23:14.491Z,6.90
2019-05-05T07:24:14.537Z,7.40
2019-05-05T07:25:13.767Z,7.10
2019-05-05T07:26:14.460Z,6.70
2019-05-05T07:27:13.806Z,7.20
2019-05-05T07:28:14.517Z,7.10
2019-05-05T07:29:15.293Z,7.30
2019-05-05T07:30:13.768Z,6.80
2019-05-05T07:31:14.306Z,6.60
2019-05-05T07:32:14.143Z,6.80
2019-05-05T07:33:14.723Z,6.80
2019-05-05T07:34:13.683Z,7.20
2019-05-05T07:35:14.455Z,7.30
2019-05-05T07:36:14.547Z,7.20
2019-05-05T07:37:14.359Z,7.00
2019-05-05T07:38:13.822Z,7.20
2019-05-05T07:39:14.368Z,7.20
2019-05-05T07:40:13.558Z,7.90
2019-05-05T07:41:14.096Z,6.90
2019-05-05T07:42:13.710Z,7.90
2019-05-05T07:43:14.492Z,8.10
2019-05-05T07:44:25.884Z,7.70
2019-05-05T07:45:22.104Z,8.20
2019-05-05T07:46:13.639Z,8.30
2019-05-05T07:47:14.454Z,8.70
2019-05-05T07:48:13.874Z,8.90
2019-05-05T07:49:13.851Z,8.60
2019-05-05T07:50:26.463Z,8.40
2019-05-05T07:51:14.182Z,10.20
2019-05-05T07:52:14.873Z,10.10
2019-05-05T07:53:17.529Z,9.30
2019-05-05T07:54:14.464Z,9.00
2019-05-05T07:55:14.254Z,9.90
2019-05-05T07:56:14.291Z,9.10
2019-05-05T07:57:14.486Z,8.80
2019-05-05T07:58:13.929Z,9.50
2019-05-05T07:59:14.401Z,10.00
2019-05-05T08:00:12.182Z,10.40
2019-05-05T08:01:14.087Z,10.00
2019-05-05T08:02:14.422Z,10.30
2019-05-05T08:03:14.225Z,9.60
2019-05-05T08:04:13.696Z,10.50
2019-05-05T08:05:14.111Z,10.70
2019-05-05T08:06:14.321Z,11.60
2019-05-05T08:07:12.107Z,11.30
2019-05-05T08:08:13.876Z,11.20
2019-05-05T08:09:12.080Z,12.10
2019-05-05T08:10:13.695Z,12.40
2019-05-05T08:11:12.058Z,12.10
2019-05-05T08:12:13.709Z,11.40
2019-05-05T08:13:14.179Z,11.40
2019-05-05T08:14:14.375Z,11.90
2019-05-05T08:15:12.015Z,12.20
2019-05-05T08:16:13.996Z,12.70
2019-05-05T08:17:11.993Z,11.70
2019-05-05T08:18:13.854Z,12.90
2019-05-05T08:19:13.795Z,14.40
2019-05-05T08:20:14.178Z,13.60
2019-05-05T08:21:13.625Z,13.90
2019-05-05T08:22:14.018Z,14.10
2019-05-05T08:23:28.010Z,14.60
2019-05-05T08:24:13.952Z,14.20
2019-05-05T08:25:11.961Z,14.50
2019-05-05T08:26:13.700Z,13.60
2019-05-05T08:27:11.881Z,14.50
2019-05-05T08:28:11.884Z,13.80
2019-05-05T08:29:13.643Z,14.00
2019-05-05T08:30:13.974Z,13.90
2019-05-05T08:31:11.881Z,14.40
2019-05-05T08:32:13.606Z,13.50
2019-05-05T08:33:13.910Z,13.40
2019-05-05T08:34:11.809Z,15.40
2019-05-05T08:35:11.794Z,14.70
2019-05-05T08:36:11.787Z,14.90
2019-05-05T08:37:11.833Z,13.10
2019-05-05T08:38:13.693Z,13.10
2019-05-05T08:39:11.758Z,14.20
2019-05-05T08:40:11.738Z,15.30
2019-05-05T08:41:13.724Z,14.50
2019-05-05T08:42:11.788Z,14.90
2019-05-05T08:43:13.686Z,14.80
2019-05-05T08:44:11.700Z,14.40
2019-05-05T08:45:13.673Z,14.60
2019-05-05T08:46:14.162Z,15.20
2019-05-05T08:47:13.794Z,14.20
2019-05-05T08:48:14.035Z,15.30
2019-05-05T08:49:13.621Z,14.80
2019-05-05T08:50:13.604Z,15.20
2019-05-05T08:51:11.620Z,16.20
2019-05-05T08:52:11.646Z,16.40
2019-05-05T08:53:13.691Z,16.50
2019-05-05T08:54:11.581Z,17.00
2019-05-05T08:55:13.834Z,17.80
2019-05-05T08:56:11.566Z,17.10
2019-05-05T08:57:11.561Z,16.40
2019-05-05T08:58:11.542Z,17.70
2019-05-05T08:59:11.575Z,16.50
2019-05-05T09:00:13.722Z,17.50
2019-05-05T09:01:11.506Z,18.00
2019-05-05T09:02:11.500Z,18.50
2019-05-05T09:03:13.745Z,17.70
2019-05-05T09:04:11.513Z,17.30
2019-05-05T09:05:11.459Z,17.20
2019-05-05T09:06:13.551Z,17.50
2019-05-05T09:07:13.564Z,17.40
2019-05-05T09:08:13.637Z,17.70
2019-05-05T09:09:11.415Z,16.90
2019-05-05T09:10:11.401Z,17.10
2019-05-05T09:11:13.827Z,16.70
2019-05-05T09:12:13.733Z,16.50
2019-05-05T09:13:11.424Z,16.90
2019-05-05T09:14:11.409Z,15.50
2019-05-05T09:15:13.472Z,16.20
2019-05-05T09:16:11.338Z,15.90
2019-05-05T09:17:13.539Z,16.20
2019-05-05T09:18:11.313Z,16.80
2019-05-05T09:19:11.307Z,15.90
2019-05-05T09:20:13.531Z,16.70
2019-05-05T09:21:13.569Z,16.10
2019-05-05T09:22:11.271Z,16.00
2019-05-05T09:23:11.259Z,15.90
2019-05-05T09:24:11.247Z,16.70
2019-05-05T09:25:13.537Z,15.50
2019-05-05T09:26:11.222Z,16.30
2019-05-05T09:27:11.264Z,14.70
2019-05-05T09:28:11.199Z,15.00
2019-05-05T09:29:11.191Z,15.50
2019-05-05T09:30:11.177Z,14.00
2019-05-05T09:31:11.173Z,15.30
2019-05-05T09:32:11.202Z,15.20
2019-05-05T09:33:11.188Z,14.40
2019-05-05T09:34:11.133Z,14.40
2019-05-05T09:35:11.124Z,12.40
2019-05-05T09:36:13.800Z,13.10
2019-05-05T09:37:11.129Z,13.20
2019-05-05T09:38:11.130Z,13.10
2019-05-05T09:39:11.088Z,13.50
2019-05-05T09:40:11.065Z,12.40
2019-05-05T09:41:11.055Z,12.70
2019-05-05T09:42:11.043Z,12.50
2019-05-05T09:43:11.074Z,13.00
2019-05-05T09:44:11.020Z,12.30
2019-05-05T09:45:11.015Z,12.20
2019-05-05T09:46:10.998Z,13.50
2019-05-05T09:47:10.987Z,12.70
2019-05-05T09:48:11.013Z,12.60
2019-05-05T09:49:10.970Z,12.20
2019-05-05T09:50:10.956Z,11.90
2019-05-05T09:51:10.941Z,11.40
2019-05-05T09:52:10.929Z,12.00
2019-05-05T09:53:10.961Z,11.40
2019-05-05T09:54:14.615Z,11.90
2019-05-05T09:55:13.761Z,12.10
2019-05-05T09:56:10.888Z,11.30
2019-05-05T09:57:10.871Z,12.50
2019-05-05T09:58:10.911Z,12.30
2019-05-05T09:59:10.849Z,12.00
2019-05-05T10:00:10.839Z,11.80
2019-05-05T10:01:10.831Z,11.20
2019-05-05T10:02:10.819Z,10.00
2019-05-05T10:03:10.805Z,9.70
2019-05-05T10:04:10.838Z,10.80
2019-05-05T10:05:10.785Z,9.60
2019-05-05T10:06:10.782Z,9.10
2019-05-05T10:07:10.791Z,10.10
2019-05-05T10:08:10.794Z,10.90
2019-05-05T10:09:10.776Z,10.00
2019-05-05T10:10:10.731Z,10.10
2019-05-05T10:11:10.712Z,10.90
2019-05-05T10:12:10.707Z,11.40
2019-05-05T10:13:10.737Z,10.30
2019-05-05T10:14:10.681Z,8.60
2019-05-05T10:15:10.675Z,9.20
2019-05-05T10:16:10.656Z,8.90
2019-05-05T10:17:10.652Z,9.40
2019-05-05T10:18:10.679Z,9.80
2019-05-05T10:19:10.622Z,10.00
2019-05-05T10:20:10.609Z,9.10
2019-05-05T10:21:10.600Z,9.30
2019-05-05T10:22:10.593Z,9.30
2019-05-05T10:23:10.626Z,9.10
2019-05-05T10:24:10.565Z,8.40
2019-05-05T10:25:10.595Z,8.90
2019-05-05T10:26:10.543Z,9.50
2019-05-05T10:27:10.533Z,9.20
2019-05-05T10:28:10.523Z,9.10
2019-05-05T10:29:10.507Z,8.60
2019-05-05T10:30:10.730Z,8.60
2019-05-05T10:31:10.918Z,7.40
2019-05-05T10:32:10.473Z,8.50
2019-05-05T10:33:10.464Z,8.00
2019-05-05T10:34:10.506Z,7.90
2019-05-05T10:35:10.439Z,7.60
2019-05-05T10:36:10.429Z,7.70
2019-05-05T10:37:10.418Z,7.10
2019-05-05T10:38:10.410Z,8.40
2019-05-05T10:39:10.396Z,7.90
2019-05-05T10:40:10.457Z,8.30
2019-05-05T10:41:10.377Z,8.70
2019-05-05T10:42:10.368Z,8.40
2019-05-05T10:43:10.349Z,8.30
2019-05-05T10:44:10.339Z,8.20
2019-05-05T10:45:10.367Z,8.30
2019-05-05T10:46:10.321Z,7.10
2019-05-05T10:47:10.307Z,6.80
2019-05-05T10:48:10.302Z,7.40
2019-05-05T10:49:10.336Z,6.90
2019-05-05T10:50:10.283Z,6.90
2019-05-05T10:51:10.262Z,7.60
2019-05-05T10:52:10.295Z,6.80
2019-05-05T10:53:10.242Z,7.50
2019-05-05T10:54:10.222Z,7.90
2019-05-05T10:55:10.213Z,7.80
2019-05-05T10:56:10.207Z,7.00
2019-05-05T10:57:10.193Z,5.10
2019-05-05T10:58:10.238Z,5.00
2019-05-05T10:59:10.172Z,5.00
2019-05-05T11:00:13.189Z,4.90
2019-05-05T11:01:11.140Z,5.40
2019-05-05T11:02:10.133Z,5.30
2019-05-05T11:03:10.123Z,5.50
2019-05-05T11:04:10.149Z,5.70
2019-05-05T11:05:10.103Z,6.30
2019-05-05T11:06:10.088Z,5.70
2019-05-05T11:07:10.077Z,6.30
2019-05-05T11:08:10.113Z,6.10
2019-05-05T11:09:10.060Z,6.70
2019-05-05T11:10:10.054Z,7.00
2019-05-05T11:11:10.029Z,6.60
2019-05-05T11:12:10.019Z,6.30
2019-05-05T11:13:10.021Z,6.00
2019-05-05T11:14:10.039Z,6.00
2019-05-05T11:15:09.986Z,5.80
2019-05-05T11:16:09.983Z,5.50
2019-05-05T11:17:09.964Z,6.10
2019-05-05T11:18:09.954Z,6.00
2019-05-05T11:19:09.987Z,5.50
2019-05-05T11:20:09.927Z,5.60
2019-05-05T11:21:09.917Z,5.70
2019-05-05T11:22:09.906Z,6.20
2019-05-05T11:23:09.892Z,6.00
2019-05-05T11:24:09.883Z,6.00
2019-05-05T11:25:09.912Z,5.90
2019-05-05T11:26:09.859Z,5.90
2019-05-05T11:27:09.848Z,4.70
2019-05-05T11:28:10.111Z,5.40
2019-05-05T11:29:09.828Z,5.10
2019-05-05T11:30:09.859Z,5.40
2019-05-05T11:31:09.809Z,5.00
2019-05-05T11:32:09.792Z,4.80
2019-05-05T11:33:09.782Z,5.60
2019-05-05T11:34:09.767Z,5.10
2019-05-05T11:35:09.756Z,5.00
2019-05-05T11:36:09.792Z,5.10
2019-05-05T11:37:09.740Z,5.10
2019-05-05T11:38:09.723Z,5.50
2019-05-05T11:39:09.714Z,5.60
2019-05-05T11:40:09.702Z,5.60
2019-05-05T11:41:09.690Z,5.90
2019-05-05T11:42:09.742Z,5.80
2019-05-05T11:43:09.705Z,5.50
2019-05-05T11:44:09.659Z,5.60
2019-05-05T11:45:09.648Z,5.70
2019-05-05T11:46:09.704Z,5.50
2019-05-05T11:47:09.624Z,5.80
2019-05-05T11:48:09.608Z,6.00
2019-05-05T11:49:09.602Z,5.70
2019-05-05T11:50:09.588Z,5.40
2019-05-05T11:51:09.620Z,6.00
2019-05-05T11:52:09.576Z,5.80
2019-05-05T11:53:09.555Z,5.40
2019-05-05T11:54:09.544Z,5.90
2019-05-05T11:55:12.174Z,5.90
2019-05-05T11:56:09.519Z,5.70
2019-05-05T11:57:09.553Z,5.80
2019-05-05T11:58:09.502Z,5.50
2019-05-05T11:59:09.489Z,5.00
2019-05-05T12:00:09.485Z,5.50
2019-05-05T12:01:09.468Z,5.00
2019-05-05T12:02:09.456Z,5.50
2019-05-05T12:03:09.488Z,5.20
2019-05-05T12:04:09.434Z,5.20
2019-05-05T12:05:09.422Z,4.50
2019-05-05T12:06:09.415Z,4.70
2019-05-05T12:07:09.444Z,5.10
2019-05-05T12:08:09.385Z,4.50
2019-05-05T12:09:09.379Z,5.10
2019-05-05T12:10:09.364Z,5.00
2019-05-05T12:11:09.360Z,5.20
2019-05-05T12:12:09.392Z,4.70
2019-05-05T12:13:09.346Z,5.60
2019-05-05T12:14:09.322Z,5.70
2019-05-05T12:15:09.308Z,4.90
2019-05-05T12:16:09.342Z,5.40
2019-05-05T12:17:09.327Z,5.10
2019-05-05T12:18:09.288Z,4.90
2019-05-05T12:19:09.263Z,4.60
2019-05-05T12:20:09.301Z,4.00
2019-05-05T12:21:09.242Z,4.70
2019-05-05T12:22:09.273Z,4.40
2019-05-05T12:23:09.227Z,4.20
2019-05-05T12:24:09.210Z,4.30
2019-05-05T12:25:22.013Z,4.60
2019-05-05T12:26:10.183Z,4.40
2019-05-05T12:27:09.177Z,4.70
2019-05-05T12:28:09.205Z,4.40
2019-05-05T12:29:09.156Z,4.60
2019-05-05T12:30:09.141Z,4.00
2019-05-05T12:31:09.129Z,4.30
2019-05-05T12:32:12.257Z,4.60
2019-05-05T12:33:10.106Z,3.50
2019-05-05T12:34:09.096Z,4.10
2019-05-05T12:35:09.105Z,4.40
2019-05-05T12:36:09.073Z,4.20
2019-05-05T12:37:09.105Z,4.30
2019-05-05T12:38:09.048Z,4.60
2019-05-05T12:39:09.042Z,4.00
2019-05-05T12:40:09.040Z,3.90
2019-05-05T12:41:09.017Z,4.40
2019-05-05T12:42:09.010Z,4.00
2019-05-05T12:43:09.041Z,4.60
2019-05-05T12:44:08.985Z,4.00
2019-05-05T12:45:08.979Z,4.50
2019-05-05T12:46:08.959Z,4.00
2019-05-05T12:47:08.992Z,4.10
2019-05-05T12:48:08.936Z,4.20
2019-05-05T12:49:08.984Z,4.40
2019-05-05T12:50:08.920Z,3.90
2019-05-05T12:51:08.908Z,4.20
2019-05-05T12:52:08.896Z,4.60
2019-05-05T12:53:08.883Z,4.20
2019-05-05T12:54:08.881Z,4.20
2019-05-05T12:55:08.912Z,4.10
2019-05-05T12:56:08.869Z,4.00
2019-05-05T12:57:08.837Z,3.80
2019-05-05T12:58:08.870Z,3.70
2019-05-05T12:59:08.855Z,3.90
2019-05-05T13:00:08.803Z,4.10
2019-05-05T13:01:08.796Z,4.80
2019-05-05T13:02:08.779Z,3.40
2019-05-05T13:03:08.767Z,4.70
2019-05-05T13:04:08.764Z,4.80
2019-05-05T13:05:08.795Z,4.60
2019-05-05T13:06:09.013Z,5.00
2019-05-05T13:07:08.725Z,4.70
2019-05-05T13:08:08.731Z,4.50
2019-05-05T13:09:08.708Z,4.60
2019-05-05T13:10:08.690Z,5.10
2019-05-05T13:11:08.721Z,4.90
2019-05-05T13:12:08.668Z,4.60
2019-05-05T13:13:08.709Z,4.50